createdAt,value
2023-02-09T00:01:24.285Z,18.97
2023-02-09T00:03:51.942Z,24.93
2023-02-09T00:06:22.117Z,22.20
2023-02-09T00:08:49.728Z,20.90
2023-02-09T00:11:46.583Z,23.97
2023-02-09T00:14:16.464Z,25.43
2023-02-09T00:16:43.782Z,21.60
2023-02-09T00:21:58.125Z,21.97
2023-02-09T00:24:25.818Z,26.37
2023-02-09T00:26:53.249Z,26.10
2023-02-09T00:29:24.109Z,18.87
2023-02-09T00:31:52.139Z,22.80
2023-02-09T00:34:19.823Z,20.43
2023-02-09T00:36:47.556Z,18.43
2023-02-09T00:39:14.923Z,20.30
2023-02-09T00:42:00.995Z,18.07
2023-02-09T00:44:28.328Z,22.83
2023-02-09T00:46:56.066Z,24.93
2023-02-09T00:49:23.589Z,26.77
2023-02-09T00:51:51.110Z,19.37
2023-02-09T00:54:18.517Z,19.40
2023-02-09T00:56:46.158Z,24.37
2023-02-09T00:59:13.612Z,28.57
2023-02-09T01:01:40.955Z,19.90
2023-02-09T01:04:08.610Z,18.40
2023-02-09T01:06:35.892Z,22.57
2023-02-09T01:09:03.424Z,23.33
2023-02-09T01:11:30.894Z,29.00
2023-02-09T01:13:59.817Z,26.30
2023-02-09T01:16:31.703Z,22.70
2023-02-09T01:19:01.645Z,25.37
2023-02-09T01:21:29.338Z,21.33
2023-02-09T01:23:56.810Z,19.63
2023-02-09T01:26:24.258Z,16.50
2023-02-09T01:28:53.572Z,24.73
2023-02-09T01:31:31.727Z,17.93
2023-02-09T01:34:02.359Z,27.23
2023-02-09T01:36:30.804Z,18.43
2023-02-09T01:39:00.559Z,30.00
2023-02-09T01:41:28.447Z,23.40
2023-02-09T01:44:30.085Z,27.93
2023-02-09T01:46:57.348Z,18.50
2023-02-09T01:49:27.264Z,21.60
2023-02-09T01:51:58.378Z,20.43
2023-02-09T01:54:49.393Z,20.07
2023-02-09T01:57:24.344Z,22.53
2023-02-09T01:59:58.674Z,23.37
2023-02-09T02:02:26.261Z,21.13
2023-02-09T02:04:53.655Z,22.60
2023-02-09T02:07:32.559Z,17.63
2023-02-09T02:10:01.235Z,25.50
2023-02-09T02:12:28.600Z,17.70
2023-02-09T02:14:55.909Z,21.80
2023-02-09T02:17:37.682Z,15.00
2023-02-09T02:20:04.935Z,23.63
2023-02-09T02:22:48.595Z,18.07
2023-02-09T02:25:38.449Z,15.30
2023-02-09T02:28:42.698Z,16.57
2023-02-09T02:31:57.195Z,19.70
2023-02-09T02:34:24.490Z,17.00
2023-02-09T02:36:55.481Z,16.07
2023-02-09T02:39:51.161Z,13.80
2023-02-09T02:42:44.557Z,21.77
2023-02-09T02:45:31.312Z,14.20
2023-02-09T02:48:24.377Z,16.93
2023-02-09T02:51:29.970Z,19.60
2023-02-09T02:54:00.512Z,18.03
2023-02-09T02:56:40.226Z,15.00
2023-02-09T02:59:12.352Z,17.90
2023-02-09T03:01:56.283Z,19.83
2023-02-09T03:04:25.072Z,16.67
2023-02-09T03:06:52.508Z,16.00
2023-02-09T03:09:19.945Z,19.43
2023-02-09T03:11:52.237Z,19.73
2023-02-09T03:15:08.595Z,18.60
2023-02-09T03:17:44.731Z,15.27
2023-02-09T03:20:25.446Z,14.07
2023-02-09T03:23:00.294Z,26.70
2023-02-09T03:25:34.658Z,13.23
2023-02-09T03:28:08.457Z,21.30
2023-02-09T03:30:37.052Z,18.70
2023-02-09T03:33:05.472Z,15.13
2023-02-09T03:35:39.490Z,20.57
2023-02-09T03:38:07.198Z,16.77
2023-02-09T03:40:35.104Z,16.90
2023-02-09T03:43:02.798Z,19.97
2023-02-09T03:45:30.123Z,15.30
2023-02-09T03:47:57.435Z,14.97
2023-02-09T03:50:24.791Z,13.23
2023-02-09T03:52:52.046Z,18.70
2023-02-09T03:55:19.389Z,12.70
2023-02-09T03:57:46.674Z,17.13
2023-02-09T04:00:14.665Z,14.20
2023-02-09T04:02:42.284Z,14.13
2023-02-09T04:05:10.251Z,18.47
2023-02-09T04:07:37.997Z,14.50
2023-02-09T04:10:06.325Z,17.30
2023-02-09T04:12:33.604Z,18.43
2023-02-09T04:15:00.894Z,14.20
2023-02-09T04:17:28.276Z,19.87
2023-02-09T04:19:56.633Z,16.27
2023-02-09T04:22:23.935Z,24.57
2023-02-09T04:24:51.180Z,15.33
2023-02-09T04:27:18.498Z,19.47
2023-02-09T04:29:45.785Z,17.03
2023-02-09T04:32:13.100Z,21.97
2023-02-09T04:34:40.438Z,15.37
2023-02-09T04:37:07.689Z,19.90
2023-02-09T04:39:34.992Z,12.03
2023-02-09T04:42:02.242Z,21.70
2023-02-09T04:44:29.192Z,12.63
2023-02-09T04:46:56.468Z,16.90
2023-02-09T04:49:23.785Z,13.80
2023-02-09T04:51:51.170Z,13.13
2023-02-09T04:54:18.485Z,11.13
2023-02-09T04:56:45.735Z,8.60
2023-02-09T04:59:31.515Z,9.73
2023-02-09T05:01:58.800Z,15.30
2023-02-09T05:04:26.069Z,15.37
2023-02-09T05:06:53.351Z,14.77
2023-02-09T05:09:20.600Z,16.53
2023-02-09T05:11:48.063Z,15.13
2023-02-09T05:14:15.646Z,23.30
2023-02-09T05:16:43.040Z,14.37
2023-02-09T05:19:10.469Z,13.93
2023-02-09T05:21:37.756Z,22.60
2023-02-09T05:24:05.434Z,48.47
2023-02-09T05:26:32.734Z,45.80
2023-02-09T05:28:59.993Z,65.93
2023-02-09T05:31:27.708Z,57.43
2023-02-09T05:33:55.221Z,21.10
2023-02-09T05:36:22.610Z,13.83
2023-02-09T05:38:49.908Z,19.60
2023-02-09T05:41:37.209Z,25.60
2023-02-09T05:44:05.484Z,10.03
2023-02-09T05:46:32.792Z,13.10
2023-02-09T05:49:00.564Z,17.73
2023-02-09T05:51:27.851Z,18.87
2023-02-09T05:53:56.353Z,20.27
2023-02-09T05:56:23.690Z,17.63
2023-02-09T05:58:51.022Z,16.87
2023-02-09T06:01:18.356Z,20.47
2023-02-09T06:03:45.669Z,17.37
2023-02-09T06:06:13.049Z,15.30
2023-02-09T06:08:40.424Z,20.17
2023-02-09T06:11:07.808Z,25.57
2023-02-09T06:13:35.066Z,16.90
2023-02-09T06:16:02.383Z,23.83
2023-02-09T06:18:29.764Z,13.07
2023-02-09T06:20:57.123Z,31.10
2023-02-09T06:23:23.985Z,16.63
2023-02-09T06:25:53.293Z,21.00
2023-02-09T06:28:20.886Z,17.20
2023-02-09T06:30:53.023Z,19.70
2023-02-09T06:33:20.904Z,23.43
2023-02-09T06:35:48.852Z,21.93
2023-02-09T06:38:17.169Z,22.43
2023-02-09T06:40:46.063Z,36.83
2023-02-09T06:43:13.958Z,16.17
2023-02-09T06:45:41.623Z,17.83
2023-02-09T06:48:09.844Z,19.97
2023-02-09T06:50:38.554Z,21.40
2023-02-09T06:53:06.492Z,23.93
2023-02-09T06:55:34.539Z,16.43
2023-02-09T06:58:01.914Z,13.23
2023-02-09T07:00:30.998Z,18.03
2023-02-09T07:02:59.483Z,19.23
2023-02-09T07:05:26.821Z,19.03
2023-02-09T07:07:55.780Z,17.00
2023-02-09T07:10:23.187Z,15.63
2023-02-09T07:12:50.512Z,26.13
2023-02-09T07:15:17.862Z,24.70
2023-02-09T07:17:45.132Z,20.80
2023-02-09T07:20:13.003Z,21.07
2023-02-09T07:22:39.907Z,19.00
2023-02-09T07:25:07.372Z,18.70
2023-02-09T07:27:34.691Z,18.27
2023-02-09T07:30:01.965Z,16.90
2023-02-09T07:32:29.346Z,16.40
2023-02-09T07:34:56.597Z,15.80
2023-02-09T07:37:23.873Z,15.27
2023-02-09T07:39:51.212Z,21.37
2023-02-09T07:42:18.500Z,35.43
2023-02-09T07:44:45.825Z,69.23
2023-02-09T07:47:15.307Z,21.90
2023-02-09T07:49:42.710Z,21.97
2023-02-09T07:52:10.058Z,16.80
2023-02-09T07:54:37.340Z,11.00
2023-02-09T07:57:04.591Z,16.03
2023-02-09T07:59:31.935Z,20.03
2023-02-09T08:01:59.384Z,15.30
2023-02-09T08:04:26.663Z,15.70
2023-02-09T08:06:54.050Z,14.00
2023-02-09T08:09:21.372Z,13.53
2023-02-09T08:11:50.325Z,13.60
2023-02-09T08:14:28.759Z,13.77
2023-02-09T08:17:20.249Z,15.40
2023-02-09T08:19:59.188Z,12.13
2023-02-09T08:22:30.442Z,17.67
2023-02-09T08:24:59.930Z,16.53
2023-02-09T08:27:27.324Z,17.70
2023-02-09T08:29:54.699Z,18.00
2023-02-09T08:32:22.394Z,14.47
2023-02-09T08:34:49.286Z,18.67
2023-02-09T08:37:16.185Z,11.83
2023-02-09T08:39:44.217Z,14.67
2023-02-09T08:42:11.542Z,13.90
2023-02-09T08:44:38.511Z,14.97
2023-02-09T08:47:05.870Z,35.73
2023-02-09T08:49:33.274Z,15.43
2023-02-09T08:52:00.179Z,14.13
2023-02-09T08:54:27.498Z,23.80
2023-02-09T08:56:54.606Z,17.50
2023-02-09T08:59:22.104Z,13.60
2023-02-09T09:01:49.030Z,20.87
2023-02-09T09:04:17.108Z,19.63
2023-02-09T09:06:44.393Z,13.97
2023-02-09T09:09:11.366Z,16.13
2023-02-09T09:11:38.341Z,15.57
2023-02-09T09:14:05.219Z,16.07
2023-02-09T09:16:32.223Z,17.53
2023-02-09T09:18:59.335Z,14.87
2023-02-09T09:21:26.278Z,15.03
2023-02-09T09:23:53.278Z,21.53
2023-02-09T09:26:20.611Z,13.77
2023-02-09T09:28:51.104Z,19.00
2023-02-09T09:31:19.747Z,18.47
2023-02-09T09:33:47.825Z,17.07
2023-02-09T09:36:15.206Z,13.17
2023-02-09T09:38:43.016Z,14.80
2023-02-09T09:41:38.066Z,15.47
2023-02-09T09:44:38.716Z,13.40
2023-02-09T09:47:16.145Z,14.13
2023-02-09T09:49:43.274Z,14.33
2023-02-09T09:52:38.853Z,16.03
2023-02-09T09:55:19.792Z,16.00
2023-02-09T09:57:46.803Z,16.07
2023-02-09T10:00:35.232Z,15.23
2023-02-09T10:03:03.193Z,15.27
2023-02-09T10:05:39.096Z,17.13
2023-02-09T10:08:34.634Z,15.87
2023-02-09T10:11:13.888Z,17.43
2023-02-09T10:13:48.240Z,16.57
2023-02-09T10:16:34.386Z,15.77
2023-02-09T10:19:05.428Z,16.90
2023-02-09T10:21:36.261Z,19.73
2023-02-09T10:24:17.012Z,20.83
2023-02-09T10:26:44.190Z,54.93
2023-02-09T10:29:10.974Z,61.70
2023-02-09T10:31:43.038Z,37.93
2023-02-09T10:34:18.263Z,39.17
2023-02-09T10:37:14.752Z,14.20
2023-02-09T10:39:42.316Z,15.20
2023-02-09T10:42:20.572Z,19.17
2023-02-09T10:44:54.310Z,15.80
2023-02-09T10:47:21.206Z,16.33
2023-02-09T10:50:12.879Z,16.57
2023-02-09T10:52:59.011Z,18.93
2023-02-09T10:55:37.056Z,20.00
2023-02-09T10:58:20.516Z,19.70
2023-02-09T11:01:12.700Z,19.30
2023-02-09T11:04:07.993Z,17.60
2023-02-09T11:06:58.802Z,24.70
2023-02-09T11:09:31.850Z,25.80
2023-02-09T11:11:58.868Z,18.87
2023-02-09T11:14:25.949Z,24.97
2023-02-09T11:17:13.521Z,44.40
2023-02-09T11:20:23.964Z,21.53
2023-02-09T11:23:06.703Z,16.20
2023-02-09T11:25:49.717Z,18.70
2023-02-09T11:28:27.020Z,22.20
2023-02-09T11:31:37.329Z,15.73
2023-02-09T11:34:26.301Z,17.63
2023-02-09T11:37:28.229Z,28.83
2023-02-09T11:40:07.074Z,19.77
2023-02-09T11:42:46.945Z,21.87
2023-02-09T11:45:22.490Z,17.93
2023-02-09T11:47:59.235Z,19.20
2023-02-09T11:51:09.321Z,16.50
2023-02-09T11:54:03.465Z,21.13
2023-02-09T11:56:36.929Z,24.83
2023-02-09T11:59:34.431Z,42.10
2023-02-09T12:02:41.522Z,30.53
2023-02-09T12:05:12.778Z,20.90
2023-02-09T12:08:23.830Z,25.83
2023-02-09T12:11:19.882Z,17.60
2023-02-09T12:13:55.553Z,15.17
2023-02-09T12:16:29.500Z,15.90
2023-02-09T12:18:56.967Z,14.87
2023-02-09T12:21:34.514Z,18.13
2023-02-09T12:24:02.009Z,13.53
2023-02-09T12:26:43.803Z,10.40
2023-02-09T12:29:35.418Z,10.27
2023-02-09T12:32:06.031Z,9.67
2023-02-09T12:34:49.603Z,10.30
2023-02-09T12:37:28.036Z,11.07
2023-02-09T12:40:22.540Z,11.50
2023-02-09T12:42:52.436Z,13.50
2023-02-09T12:45:58.777Z,10.87
2023-02-09T12:48:25.751Z,6.80
2023-02-09T12:50:55.475Z,8.67
2023-02-09T12:53:22.390Z,7.33
2023-02-09T12:56:03.842Z,7.93
2023-02-09T12:58:34.438Z,7.93
2023-02-09T13:01:01.427Z,7.47
2023-02-09T13:03:29.747Z,8.40
2023-02-09T13:06:00.393Z,8.93
2023-02-09T13:08:37.079Z,8.03
2023-02-09T13:11:19.127Z,7.77
2023-02-09T13:14:07.726Z,6.70
2023-02-09T13:16:44.568Z,13.93
2023-02-09T13:19:52.289Z,11.17
2023-02-09T13:22:57.655Z,8.03
2023-02-09T13:25:33.332Z,6.87
2023-02-09T13:28:26.863Z,7.93
2023-02-09T13:30:54.121Z,7.00
2023-02-09T13:33:57.779Z,7.73
2023-02-09T13:36:41.282Z,9.23
2023-02-09T13:39:22.410Z,8.43
2023-02-09T13:41:50.030Z,9.87
2023-02-09T13:44:27.409Z,9.50
2023-02-09T13:46:58.737Z,7.13
2023-02-09T13:49:28.498Z,13.03
2023-02-09T13:52:19.887Z,8.30
2023-02-09T13:54:46.922Z,7.33
2023-02-09T13:57:36.555Z,9.03
2023-02-09T14:00:41.763Z,7.27
2023-02-09T14:03:26.103Z,7.37
2023-02-09T14:06:09.198Z,7.53
2023-02-09T14:08:39.255Z,6.70
2023-02-09T14:11:42.238Z,8.97
2023-02-09T14:14:23.918Z,9.43
2023-02-09T14:17:25.522Z,8.70
2023-02-09T14:19:55.027Z,9.73
2023-02-09T14:22:38.377Z,8.60
2023-02-09T14:25:14.265Z,8.00
2023-02-09T14:27:46.265Z,7.60
2023-02-09T14:30:32.727Z,8.23
2023-02-09T14:33:03.437Z,12.47
2023-02-09T14:35:56.539Z,6.33
2023-02-09T14:38:43.169Z,10.50
2023-02-09T14:41:33.177Z,10.57
2023-02-09T14:44:21.447Z,11.93
2023-02-09T14:46:57.732Z,12.30
2023-02-09T14:49:26.082Z,11.23
2023-02-09T14:52:15.059Z,15.43
2023-02-09T14:54:49.188Z,12.43
2023-02-09T14:57:16.189Z,11.10
2023-02-09T14:59:43.063Z,7.83
2023-02-09T15:02:19.201Z,8.53
2023-02-09T15:04:47.003Z,10.00
2023-02-09T15:07:21.669Z,12.87
2023-02-09T15:09:49.489Z,12.20
2023-02-09T15:12:26.529Z,12.03
2023-02-09T15:15:00.784Z,13.57
2023-02-09T15:17:30.195Z,11.60
2023-02-09T15:19:58.569Z,12.43
2023-02-09T15:22:25.905Z,20.10
2023-02-09T15:24:54.588Z,13.30
2023-02-09T15:27:51.304Z,12.77
2023-02-09T15:30:33.436Z,21.80
2023-02-09T15:33:01.064Z,24.20
2023-02-09T15:35:29.460Z,23.33
2023-02-09T15:37:59.663Z,28.60
2023-02-09T15:40:57.089Z,23.00
2023-02-09T15:43:42.889Z,25.17
2023-02-09T15:46:22.286Z,28.27
2023-02-09T15:48:49.266Z,22.23
2023-02-09T15:51:17.903Z,28.10
2023-02-09T15:53:45.938Z,25.97
2023-02-09T15:56:14.608Z,25.93
2023-02-09T15:58:44.915Z,21.40
2023-02-09T16:01:16.714Z,29.50
2023-02-09T16:03:44.033Z,38.07
2023-02-09T16:06:20.860Z,31.00
2023-02-09T16:08:48.984Z,37.47
2023-02-09T16:11:36.352Z,38.33
2023-02-09T16:14:05.768Z,35.90
2023-02-09T16:16:33.232Z,38.03
2023-02-09T16:19:00.715Z,39.07
2023-02-09T16:21:31.924Z,41.13
2023-02-09T16:24:03.082Z,38.67
2023-02-09T16:26:32.964Z,29.53
2023-02-09T16:29:00.069Z,34.30
2023-02-09T16:31:27.490Z,41.73
2023-02-09T16:33:54.458Z,40.67
2023-02-09T16:36:24.905Z,33.67
2023-02-09T16:38:51.801Z,30.77
2023-02-09T16:41:37.970Z,36.70
2023-02-09T16:44:25.381Z,41.03
2023-02-09T16:46:55.570Z,29.07
2023-02-09T16:49:38.503Z,33.80
2023-02-09T16:52:20.104Z,31.27
2023-02-09T16:54:57.640Z,35.03
2023-02-09T16:57:26.260Z,24.40
2023-02-09T16:59:54.213Z,22.93
2023-02-09T17:02:59.913Z,23.83
2023-02-09T17:05:31.312Z,24.70
2023-02-09T17:08:33.297Z,26.73
2023-02-09T17:11:02.562Z,26.47
2023-02-09T17:13:30.939Z,39.53
2023-02-09T17:16:06.861Z,30.63
2023-02-09T17:18:42.302Z,25.50
2023-02-09T17:21:21.655Z,24.67
2023-02-09T17:23:48.911Z,28.27
2023-02-09T17:26:15.791Z,25.97
2023-02-09T17:28:43.389Z,22.87
2023-02-09T17:31:18.162Z,28.80
2023-02-09T17:33:48.993Z,29.40
2023-02-09T17:36:27.089Z,24.67
2023-02-09T17:38:57.618Z,27.30
2023-02-09T17:41:37.077Z,24.77
2023-02-09T17:44:29.033Z,24.47
2023-02-09T17:47:03.423Z,24.70
2023-02-09T17:49:30.572Z,21.33
2023-02-09T17:51:58.228Z,18.87
2023-02-09T17:54:25.701Z,24.90
2023-02-09T17:56:53.194Z,18.67
2023-02-09T17:59:21.351Z,18.00
2023-02-09T18:01:51.806Z,19.67
2023-02-09T18:04:26.709Z,23.30
2023-02-09T18:06:56.038Z,24.37
2023-02-09T18:09:24.929Z,29.10
2023-02-09T18:11:52.007Z,27.03
2023-02-09T18:14:21.231Z,19.40
2023-02-09T18:16:49.200Z,24.87
2023-02-09T18:19:16.871Z,24.73
2023-02-09T18:21:53.744Z,22.70
2023-02-09T18:24:23.549Z,23.37
2023-02-09T18:26:53.604Z,21.20
2023-02-09T18:29:23.615Z,16.93
2023-02-09T18:31:51.621Z,23.00
2023-02-09T18:34:18.948Z,23.70
2023-02-09T18:36:45.880Z,21.80
2023-02-09T18:39:15.939Z,21.70
2023-02-09T18:41:45.062Z,24.70
2023-02-09T18:44:12.603Z,24.00
2023-02-09T18:46:39.617Z,18.23
2023-02-09T18:49:06.949Z,18.60
2023-02-09T18:51:34.246Z,20.17
2023-02-09T18:54:01.119Z,20.07
2023-02-09T18:56:28.564Z,20.10
2023-02-09T18:58:55.614Z,22.17
2023-02-09T19:01:24.049Z,20.70
2023-02-09T19:03:54.582Z,19.60
2023-02-09T19:06:22.883Z,21.37
2023-02-09T19:08:50.661Z,23.40
2023-02-09T19:11:21.213Z,28.30
2023-02-09T19:14:08.728Z,27.17
2023-02-09T19:16:37.034Z,27.30
2023-02-09T19:19:04.536Z,25.27
2023-02-09T19:21:32.315Z,33.33
2023-02-09T19:23:59.639Z,31.77
2023-02-09T19:26:27.034Z,29.27
2023-02-09T19:28:57.029Z,28.70
2023-02-09T19:31:24.633Z,23.73
2023-02-09T19:33:56.551Z,27.00
2023-02-09T19:36:25.103Z,22.60
2023-02-09T19:38:52.425Z,25.77
2023-02-09T19:41:23.147Z,24.47
2023-02-09T19:43:55.602Z,25.77
2023-02-09T19:46:23.278Z,27.07
2023-02-09T19:48:50.661Z,27.63
2023-02-09T19:51:17.995Z,21.43
2023-02-09T19:53:45.381Z,23.00
2023-02-09T19:56:17.945Z,26.63
2023-02-09T19:58:45.588Z,20.40
2023-02-09T20:01:13.302Z,19.97
2023-02-09T20:03:40.673Z,20.77
2023-02-09T20:06:10.286Z,19.77
2023-02-09T20:08:38.308Z,21.97
2023-02-09T20:11:08.087Z,19.60
2023-02-09T20:13:35.542Z,20.67
2023-02-09T20:16:11.350Z,17.60
2023-02-09T20:18:38.723Z,19.13
2023-02-09T20:21:09.653Z,22.73
2023-02-09T20:23:37.771Z,18.53
2023-02-09T20:26:22.660Z,25.63
2023-02-09T20:28:50.536Z,23.77
2023-02-09T20:31:24.009Z,24.23
2023-02-09T20:33:51.593Z,23.73
2023-02-09T20:36:19.525Z,29.20
2023-02-09T20:38:47.377Z,30.80
2023-02-09T20:41:17.452Z,22.87
2023-02-09T20:44:03.694Z,29.10
2023-02-09T20:46:51.572Z,28.80
2023-02-09T20:49:19.043Z,27.77
2023-02-09T20:51:46.670Z,27.07
2023-02-09T20:54:14.659Z,24.00
2023-02-09T20:56:42.344Z,28.93
2023-02-09T20:59:09.785Z,24.30
2023-02-09T21:01:38.376Z,27.87
2023-02-09T21:04:07.294Z,26.63
2023-02-09T21:06:37.007Z,57.57
2023-02-09T21:09:10.522Z,51.13
2023-02-09T21:11:37.987Z,29.10
2023-02-09T21:14:05.305Z,26.90
2023-02-09T21:16:33.136Z,23.00
2023-02-09T21:19:01.031Z,26.83
2023-02-09T21:21:29.430Z,18.40
2023-02-09T21:23:56.908Z,24.23
2023-02-09T21:26:24.521Z,18.57
2023-02-09T21:28:56.115Z,21.20
2023-02-09T21:31:27.356Z,20.43
2023-02-09T21:33:54.894Z,23.80
2023-02-09T21:36:22.488Z,21.53
2023-02-09T21:38:49.968Z,20.17
2023-02-09T21:41:39.181Z,21.83
2023-02-09T21:44:07.018Z,30.80
2023-02-09T21:46:34.612Z,21.53
2023-02-09T21:49:02.284Z,24.70
2023-02-09T21:51:29.608Z,22.70
2023-02-09T21:53:57.204Z,23.30
2023-02-09T21:56:24.559Z,26.17
2023-02-09T21:58:51.852Z,20.50
2023-02-09T22:01:19.355Z,25.57
2023-02-09T22:03:58.429Z,26.67
2023-02-09T22:06:26.765Z,28.40
2023-02-09T22:08:54.426Z,25.17
2023-02-09T22:11:21.886Z,21.83
2023-02-09T22:13:49.240Z,25.30
2023-02-09T22:16:20.151Z,26.00
2023-02-09T22:18:47.550Z,26.73
2023-02-09T22:21:14.873Z,20.43
2023-02-09T22:23:42.180Z,24.83
2023-02-09T22:26:10.257Z,23.10
2023-02-09T22:28:37.596Z,30.23
2023-02-09T22:31:17.557Z,35.93
2023-02-09T22:33:45.441Z,32.73
2023-02-09T22:36:18.129Z,31.97
2023-02-09T22:38:45.931Z,30.40
2023-02-09T22:41:22.703Z,25.90
2023-02-09T22:44:12.398Z,32.10
2023-02-09T22:46:41.173Z,34.97
2023-02-09T22:49:17.380Z,31.20
2023-02-09T22:51:46.725Z,41.93
2023-02-09T22:54:20.638Z,34.03
2023-02-09T22:56:48.004Z,34.37
2023-02-09T22:59:15.583Z,23.63
2023-02-09T23:01:43.545Z,24.23
2023-02-09T23:04:11.197Z,24.03
2023-02-09T23:06:38.540Z,22.70
2023-02-09T23:09:07.968Z,23.97
2023-02-09T23:11:36.516Z,17.40
2023-02-09T23:14:09.756Z,25.83
2023-02-09T23:16:39.736Z,25.53
2023-02-09T23:19:09.445Z,23.40
2023-02-09T23:21:39.739Z,24.90
2023-02-09T23:24:07.971Z,23.27
2023-02-09T23:26:35.934Z,27.13
2023-02-09T23:29:08.802Z,29.00
2023-02-09T23:31:36.514Z,20.33
2023-02-09T23:34:04.076Z,29.57
2023-02-09T23:36:33.766Z,28.07
2023-02-09T23:39:06.095Z,31.77
2023-02-09T23:41:34.481Z,22.07
2023-02-09T23:44:02.815Z,28.03
2023-02-09T23:46:30.307Z,25.30
2023-02-09T23:48:57.929Z,34.10
2023-02-09T23:51:30.206Z,32.60
2023-02-09T23:54:01.105Z,33.83
2023-02-09T23:56:29.917Z,28.63
2023-02-09T23:58:57.426Z,32.90
